sensor_id;sensor_type;location;lat;lon;timestamp;P1;durP1;ratioP1;P2;durP2;ratioP2
70312;SDS011;57723;51.698;5.344;2023-04-09T00:01:37;2.57;;;1.43;;
70312;SDS011;57723;51.698;5.344;2023-04-09T00:04:02;2.63;;;1.57;;
70312;SDS011;57723;51.698;5.344;2023-04-09T00:06:28;2.20;;;1.33;;
70312;SDS011;57723;51.698;5.344;2023-04-09T00:08:53;3.47;;;1.33;;
70312;SDS011;57723;51.698;5.344;2023-04-09T00:11:18;3.37;;;1.40;;
70312;SDS011;57723;51.698;5.344;2023-04-09T00:13:43;3.20;;;1.50;;
70312;SDS011;57723;51.698;5.344;2023-04-09T00:16:09;2.20;;;1.30;;
70312;SDS011;57723;51.698;5.344;2023-04-09T00:18:34;2.73;;;1.20;;
70312;SDS011;57723;51.698;5.344;2023-04-09T00:21:00;3.70;;;1.40;;
70312;SDS011;57723;51.698;5.344;2023-04-09T00:23:25;7.80;;;1.40;;
70312;SDS011;57723;51.698;5.344;2023-04-09T00:25:50;2.65;;;1.45;;
70312;SDS011;57723;51.698;5.344;2023-04-09T00:28:16;2.33;;;1.50;;
70312;SDS011;57723;51.698;5.344;2023-04-09T00:30:41;3.90;;;1.50;;
70312;SDS011;57723;51.698;5.344;2023-04-09T00:33:07;3.63;;;1.47;;
70312;SDS011;57723;51.698;5.344;2023-04-09T00:35:32;2.37;;;1.40;;
70312;SDS011;57723;51.698;5.344;2023-04-09T00:37:57;1.83;;;1.23;;
70312;SDS011;57723;51.698;5.344;2023-04-09T00:40:23;13.15;;;1.42;;
70312;SDS011;57723;51.698;5.344;2023-04-09T00:42:48;1.93;;;1.20;;
70312;SDS011;57723;51.698;5.344;2023-04-09T00:45:13;6.10;;;1.37;;
70312;SDS011;57723;51.698;5.344;2023-04-09T00:47:38;2.80;;;1.20;;
70312;SDS011;57723;51.698;5.344;2023-04-09T00:50:04;2.93;;;1.40;;
70312;SDS011;57723;51.698;5.344;2023-04-09T00:52:30;3.05;;;1.30;;
70312;SDS011;57723;51.698;5.344;2023-04-09T00:54:58;2.05;;;1.27;;
70312;SDS011;57723;51.698;5.344;2023-04-09T00:57:24;3.17;;;1.52;;
70312;SDS011;57723;51.698;5.344;2023-04-09T00:59:49;5.77;;;1.40;;
70312;SDS011;57723;51.698;5.344;2023-04-09T01:02:15;2.47;;;1.37;;
70312;SDS011;57723;51.698;5.344;2023-04-09T01:04:41;3.78;;;1.40;;
70312;SDS011;57723;51.698;5.344;2023-04-09T01:09:39;2.80;;;1.40;;
70312;SDS011;57723;51.698;5.344;2023-04-09T01:14:55;2.17;;;1.40;;
70312;SDS011;57723;51.698;5.344;2023-04-09T01:17:23;2.83;;;1.20;;
70312;SDS011;57723;51.698;5.344;2023-04-09T01:20:00;2.13;;;1.23;;
70312;SDS011;57723;51.698;5.344;2023-04-09T01:25:18;3.03;;;1.40;;
70312;SDS011;57723;51.698;5.344;2023-04-09T01:30:23;2.65;;;1.40;;
70312;SDS011;57723;51.698;5.344;2023-04-09T01:32:49;2.40;;;1.20;;
70312;SDS011;57723;51.698;5.344;2023-04-09T01:35:15;2.13;;;1.30;;
70312;SDS011;57723;51.698;5.344;2023-04-09T01:37:41;3.35;;;1.52;;
70312;SDS011;57723;51.698;5.344;2023-04-09T01:40:07;2.13;;;1.20;;
70312;SDS011;57723;51.698;5.344;2023-04-09T01:42:32;3.08;;;1.58;;
70312;SDS011;57723;51.698;5.344;2023-04-09T01:44:59;2.83;;;1.47;;
70312;SDS011;57723;51.698;5.344;2023-04-09T01:47:26;2.70;;;1.27;;
70312;SDS011;57723;51.698;5.344;2023-04-09T01:49:51;3.22;;;1.30;;
70312;SDS011;57723;51.698;5.344;2023-04-09T01:52:17;2.03;;;1.23;;
70312;SDS011;57723;51.698;5.344;2023-04-09T01:54:42;3.03;;;1.40;;
70312;SDS011;57723;51.698;5.344;2023-04-09T01:57:07;2.23;;;1.20;;
70312;SDS011;57723;51.698;5.344;2023-04-09T01:59:32;2.80;;;1.10;;
70312;SDS011;57723;51.698;5.344;2023-04-09T02:02:04;3.13;;;1.33;;
70312;SDS011;57723;51.698;5.344;2023-04-09T02:04:34;1.88;;;1.20;;
70312;SDS011;57723;51.698;5.344;2023-04-09T02:07:12;3.75;;;1.40;;
70312;SDS011;57723;51.698;5.344;2023-04-09T02:09:39;4.28;;;1.40;;
70312;SDS011;57723;51.698;5.344;2023-04-09T02:12:05;2.17;;;1.10;;
70312;SDS011;57723;51.698;5.344;2023-04-09T02:14:31;2.42;;;1.45;;
70312;SDS011;57723;51.698;5.344;2023-04-09T02:16:57;3.38;;;1.50;;
70312;SDS011;57723;51.698;5.344;2023-04-09T02:19:36;2.37;;;1.40;;
70312;SDS011;57723;51.698;5.344;2023-04-09T02:22:03;3.58;;;1.40;;
70312;SDS011;57723;51.698;5.344;2023-04-09T02:24:29;4.82;;;1.30;;
70312;SDS011;57723;51.698;5.344;2023-04-09T02:26:57;2.77;;;1.30;;
70312;SDS011;57723;51.698;5.344;2023-04-09T02:29:23;2.33;;;1.25;;
70312;SDS011;57723;51.698;5.344;2023-04-09T02:31:50;2.20;;;1.17;;
70312;SDS011;57723;51.698;5.344;2023-04-09T02:34:17;2.88;;;1.40;;
70312;SDS011;57723;51.698;5.344;2023-04-09T02:36:42;2.30;;;1.10;;
70312;SDS011;57723;51.698;5.344;2023-04-09T02:39:07;2.07;;;1.20;;
70312;SDS011;57723;51.698;5.344;2023-04-09T02:41:33;2.05;;;1.20;;
70312;SDS011;57723;51.698;5.344;2023-04-09T02:43:58;2.28;;;1.30;;
70312;SDS011;57723;51.698;5.344;2023-04-09T02:46:23;2.47;;;1.13;;
70312;SDS011;57723;51.698;5.344;2023-04-09T02:48:48;3.77;;;1.60;;
70312;SDS011;57723;51.698;5.344;2023-04-09T02:51:14;5.80;;;1.30;;
70312;SDS011;57723;51.698;5.344;2023-04-09T02:53:39;1.97;;;1.30;;
70312;SDS011;57723;51.698;5.344;2023-04-09T02:56:05;4.97;;;1.47;;
70312;SDS011;57723;51.698;5.344;2023-04-09T02:58:30;3.15;;;1.20;;
70312;SDS011;57723;51.698;5.344;2023-04-09T03:00:56;1.88;;;1.15;;
70312;SDS011;57723;51.698;5.344;2023-04-09T03:03:21;2.10;;;1.30;;
70312;SDS011;57723;51.698;5.344;2023-04-09T03:05:46;3.20;;;1.40;;
70312;SDS011;57723;51.698;5.344;2023-04-09T03:08:12;2.07;;;1.17;;
70312;SDS011;57723;51.698;5.344;2023-04-09T03:10:37;2.33;;;1.10;;
70312;SDS011;57723;51.698;5.344;2023-04-09T03:13:03;2.33;;;1.20;;
70312;SDS011;57723;51.698;5.344;2023-04-09T03:15:28;1.95;;;1.27;;
70312;SDS011;57723;51.698;5.344;2023-04-09T03:17:53;2.78;;;1.40;;
70312;SDS011;57723;51.698;5.344;2023-04-09T03:20:18;2.42;;;1.30;;
70312;SDS011;57723;51.698;5.344;2023-04-09T03:22:44;2.00;;;1.30;;
70312;SDS011;57723;51.698;5.344;2023-04-09T03:25:09;2.50;;;1.40;;
70312;SDS011;57723;51.698;5.344;2023-04-09T03:27:35;2.67;;;1.20;;
70312;SDS011;57723;51.698;5.344;2023-04-09T03:30:00;1.50;;;1.10;;
70312;SDS011;57723;51.698;5.344;2023-04-09T03:32:26;2.17;;;1.30;;
70312;SDS011;57723;51.698;5.344;2023-04-09T03:34:51;2.30;;;1.15;;
70312;SDS011;57723;51.698;5.344;2023-04-09T03:37:17;2.13;;;1.37;;
70312;SDS011;57723;51.698;5.344;2023-04-09T03:39:42;2.33;;;1.33;;
70312;SDS011;57723;51.698;5.344;2023-04-09T03:42:07;2.70;;;1.37;;
70312;SDS011;57723;51.698;5.344;2023-04-09T03:44:33;3.50;;;1.30;;
70312;SDS011;57723;51.698;5.344;2023-04-09T03:46:58;2.53;;;1.37;;
70312;SDS011;57723;51.698;5.344;2023-04-09T03:49:23;2.67;;;1.30;;
70312;SDS011;57723;51.698;5.344;2023-04-09T03:51:48;3.20;;;1.40;;
70312;SDS011;57723;51.698;5.344;2023-04-09T03:54:14;3.13;;;1.35;;
70312;SDS011;57723;51.698;5.344;2023-04-09T03:56:40;5.50;;;1.38;;
70312;SDS011;57723;51.698;5.344;2023-04-09T03:59:05;2.17;;;1.20;;
70312;SDS011;57723;51.698;5.344;2023-04-09T04:01:30;2.53;;;1.30;;
70312;SDS011;57723;51.698;5.344;2023-04-09T04:03:56;1.90;;;1.17;;
70312;SDS011;57723;51.698;5.344;2023-04-09T04:06:21;3.92;;;1.17;;
70312;SDS011;57723;51.698;5.344;2023-04-09T04:08:47;2.00;;;1.20;;
70312;SDS011;57723;51.698;5.344;2023-04-09T04:11:12;2.87;;;1.20;;
70312;SDS011;57723;51.698;5.344;2023-04-09T04:13:37;3.37;;;1.23;;
70312;SDS011;57723;51.698;5.344;2023-04-09T04:16:05;1.83;;;1.17;;
70312;SDS011;57723;51.698;5.344;2023-04-09T04:18:31;3.65;;;1.30;;
70312;SDS011;57723;51.698;5.344;2023-04-09T04:20:56;2.90;;;1.40;;
70312;SDS011;57723;51.698;5.344;2023-04-09T04:23:21;3.53;;;1.33;;
70312;SDS011;57723;51.698;5.344;2023-04-09T04:25:47;1.97;;;1.20;;
70312;SDS011;57723;51.698;5.344;2023-04-09T04:28:12;3.57;;;1.37;;
70312;SDS011;57723;51.698;5.344;2023-04-09T04:30:39;2.20;;;1.20;;
70312;SDS011;57723;51.698;5.344;2023-04-09T04:33:04;3.08;;;1.20;;
70312;SDS011;57723;51.698;5.344;2023-04-09T04:35:30;4.23;;;1.30;;
70312;SDS011;57723;51.698;5.344;2023-04-09T04:37:55;3.20;;;1.30;;
70312;SDS011;57723;51.698;5.344;2023-04-09T04:40:21;3.47;;;1.40;;
70312;SDS011;57723;51.698;5.344;2023-04-09T04:42:46;2.33;;;1.20;;
70312;SDS011;57723;51.698;5.344;2023-04-09T04:45:11;2.80;;;1.33;;
70312;SDS011;57723;51.698;5.344;2023-04-09T04:47:37;1.87;;;1.10;;
70312;SDS011;57723;51.698;5.344;2023-04-09T04:50:02;3.77;;;1.40;;
70312;SDS011;57723;51.698;5.344;2023-04-09T04:52:27;2.33;;;1.30;;
70312;SDS011;57723;51.698;5.344;2023-04-09T04:54:52;3.27;;;1.40;;
70312;SDS011;57723;51.698;5.344;2023-04-09T04:57:18;3.37;;;1.30;;
70312;SDS011;57723;51.698;5.344;2023-04-09T04:59:43;3.27;;;1.30;;
70312;SDS011;57723;51.698;5.344;2023-04-09T05:02:08;5.43;;;1.50;;
70312;SDS011;57723;51.698;5.344;2023-04-09T05:04:34;1.73;;;1.05;;
70312;SDS011;57723;51.698;5.344;2023-04-09T05:06:59;2.37;;;1.30;;
70312;SDS011;57723;51.698;5.344;2023-04-09T05:09:25;13.70;;;1.58;;
70312;SDS011;57723;51.698;5.344;2023-04-09T05:11:51;3.80;;;1.35;;
70312;SDS011;57723;51.698;5.344;2023-04-09T05:14:16;3.63;;;1.30;;
70312;SDS011;57723;51.698;5.344;2023-04-09T05:16:42;6.05;;;1.60;;
70312;SDS011;57723;51.698;5.344;2023-04-09T05:19:07;3.03;;;1.40;;
70312;SDS011;57723;51.698;5.344;2023-04-09T05:21:32;3.07;;;1.50;;
70312;SDS011;57723;51.698;5.344;2023-04-09T05:23:58;4.47;;;1.43;;
70312;SDS011;57723;51.698;5.344;2023-04-09T05:26:23;2.50;;;1.60;;
70312;SDS011;57723;51.698;5.344;2023-04-09T05:28:51;2.53;;;1.30;;
70312;SDS011;57723;51.698;5.344;2023-04-09T05:31:17;5.68;;;1.42;;
70312;SDS011;57723;51.698;5.344;2023-04-09T05:33:42;3.50;;;1.67;;
70312;SDS011;57723;51.698;5.344;2023-04-09T05:36:13;4.85;;;1.30;;
70312;SDS011;57723;51.698;5.344;2023-04-09T05:38:38;5.22;;;1.52;;
70312;SDS011;57723;51.698;5.344;2023-04-09T05:41:04;3.80;;;1.57;;
70312;SDS011;57723;51.698;5.344;2023-04-09T05:43:29;2.70;;;1.33;;
70312;SDS011;57723;51.698;5.344;2023-04-09T05:45:54;3.33;;;1.48;;
70312;SDS011;57723;51.698;5.344;2023-04-09T05:48:20;2.87;;;1.40;;
70312;SDS011;57723;51.698;5.344;2023-04-09T05:50:49;3.83;;;1.40;;
70312;SDS011;57723;51.698;5.344;2023-04-09T05:53:18;9.03;;;1.90;;
70312;SDS011;57723;51.698;5.344;2023-04-09T05:55:44;2.60;;;1.45;;
70312;SDS011;57723;51.698;5.344;2023-04-09T05:58:10;3.95;;;1.40;;
70312;SDS011;57723;51.698;5.344;2023-04-09T06:00:35;3.33;;;1.50;;
70312;SDS011;57723;51.698;5.344;2023-04-09T06:03:02;5.60;;;1.90;;
70312;SDS011;57723;51.698;5.344;2023-04-09T06:05:27;3.38;;;1.45;;
70312;SDS011;57723;51.698;5.344;2023-04-09T06:07:53;5.80;;;1.60;;
70312;SDS011;57723;51.698;5.344;2023-04-09T06:10:18;4.53;;;1.83;;
70312;SDS011;57723;51.698;5.344;2023-04-09T06:12:44;4.97;;;1.70;;
70312;SDS011;57723;51.698;5.344;2023-04-09T06:15:12;11.32;;;1.90;;
70312;SDS011;57723;51.698;5.344;2023-04-09T06:17:37;5.10;;;1.53;;
70312;SDS011;57723;51.698;5.344;2023-04-09T06:20:05;5.53;;;1.60;;
70312;SDS011;57723;51.698;5.344;2023-04-09T06:22:30;12.93;;;1.85;;
70312;SDS011;57723;51.698;5.344;2023-04-09T06:24:56;30.23;;;3.47;;
70312;SDS011;57723;51.698;5.344;2023-04-09T06:27:21;18.20;;;2.20;;
70312;SDS011;57723;51.698;5.344;2023-04-09T06:29:46;8.47;;;2.40;;
70312;SDS011;57723;51.698;5.344;2023-04-09T06:32:12;12.20;;;2.37;;
70312;SDS011;57723;51.698;5.344;2023-04-09T06:34:37;8.90;;;3.17;;
70312;SDS011;57723;51.698;5.344;2023-04-09T06:37:02;8.27;;;2.73;;
70312;SDS011;57723;51.698;5.344;2023-04-09T06:39:27;8.75;;;2.70;;
70312;SDS011;57723;51.698;5.344;2023-04-09T06:41:53;4.67;;;2.03;;
70312;SDS011;57723;51.698;5.344;2023-04-09T06:44:18;6.80;;;2.97;;
70312;SDS011;57723;51.698;5.344;2023-04-09T06:46:45;6.45;;;2.70;;
70312;SDS011;57723;51.698;5.344;2023-04-09T06:49:10;9.97;;;2.43;;
70312;SDS011;57723;51.698;5.344;2023-04-09T06:51:36;7.50;;;3.30;;
70312;SDS011;57723;51.698;5.344;2023-04-09T06:54:01;4.93;;;2.43;;
70312;SDS011;57723;51.698;5.344;2023-04-09T06:56:27;5.57;;;2.78;;
70312;SDS011;57723;51.698;5.344;2023-04-09T06:58:52;7.47;;;2.70;;
70312;SDS011;57723;51.698;5.344;2023-04-09T07:01:18;4.37;;;2.30;;
70312;SDS011;57723;51.698;5.344;2023-04-09T07:03:43;6.25;;;2.83;;
70312;SDS011;57723;51.698;5.344;2023-04-09T07:06:09;5.50;;;2.40;;
70312;SDS011;57723;51.698;5.344;2023-04-09T07:08:35;5.53;;;2.47;;
70312;SDS011;57723;51.698;5.344;2023-04-09T07:11:00;4.30;;;2.50;;
70312;SDS011;57723;51.698;5.344;2023-04-09T07:13:25;7.80;;;2.45;;
70312;SDS011;57723;51.698;5.344;2023-04-09T07:15:51;7.23;;;2.30;;
70312;SDS011;57723;51.698;5.344;2023-04-09T07:18:16;5.77;;;2.30;;
70312;SDS011;57723;51.698;5.344;2023-04-09T07:20:41;4.50;;;2.43;;
70312;SDS011;57723;51.698;5.344;2023-04-09T07:23:06;8.30;;;2.20;;
70312;SDS011;57723;51.698;5.344;2023-04-09T07:25:32;4.80;;;2.63;;
70312;SDS011;57723;51.698;5.344;2023-04-09T07:27:57;4.07;;;2.17;;
70312;SDS011;57723;51.698;5.344;2023-04-09T07:30:23;4.67;;;2.27;;
70312;SDS011;57723;51.698;5.344;2023-04-09T07:32:48;5.63;;;2.20;;
70312;SDS011;57723;51.698;5.344;2023-04-09T07:35:13;5.07;;;2.50;;
70312;SDS011;57723;51.698;5.344;2023-04-09T07:37:38;4.73;;;2.30;;
70312;SDS011;57723;51.698;5.344;2023-04-09T07:40:04;4.83;;;2.33;;
70312;SDS011;57723;51.698;5.344;2023-04-09T07:42:30;4.85;;;2.17;;
70312;SDS011;57723;51.698;5.344;2023-04-09T07:44:55;4.77;;;2.10;;
70312;SDS011;57723;51.698;5.344;2023-04-09T07:47:21;4.80;;;2.60;;
70312;SDS011;57723;51.698;5.344;2023-04-09T07:49:46;5.68;;;2.50;;
70312;SDS011;57723;51.698;5.344;2023-04-09T07:52:12;5.53;;;2.20;;
70312;SDS011;57723;51.698;5.344;2023-04-09T07:54:37;5.70;;;2.70;;
70312;SDS011;57723;51.698;5.344;2023-04-09T07:57:03;6.03;;;2.63;;
70312;SDS011;57723;51.698;5.344;2023-04-09T07:59:28;4.70;;;2.70;;
70312;SDS011;57723;51.698;5.344;2023-04-09T08:01:54;4.30;;;2.65;;
70312;SDS011;57723;51.698;5.344;2023-04-09T08:04:20;4.83;;;2.67;;
70312;SDS011;57723;51.698;5.344;2023-04-09T08:06:45;5.83;;;2.70;;
70312;SDS011;57723;51.698;5.344;2023-04-09T08:09:14;12.30;;;2.80;;
70312;SDS011;57723;51.698;5.344;2023-04-09T08:11:39;5.32;;;2.80;;
70312;SDS011;57723;51.698;5.344;2023-04-09T08:14:05;5.77;;;3.00;;
70312;SDS011;57723;51.698;5.344;2023-04-09T08:16:30;5.87;;;2.63;;
70312;SDS011;57723;51.698;5.344;2023-04-09T08:18:56;7.18;;;3.10;;
70312;SDS011;57723;51.698;5.344;2023-04-09T08:21:21;5.73;;;2.90;;
70312;SDS011;57723;51.698;5.344;2023-04-09T08:23:47;5.80;;;3.00;;
70312;SDS011;57723;51.698;5.344;2023-04-09T08:26:12;5.90;;;3.23;;
70312;SDS011;57723;51.698;5.344;2023-04-09T08:28:37;6.57;;;2.97;;
70312;SDS011;57723;51.698;5.344;2023-04-09T08:31:02;7.80;;;3.20;;
70312;SDS011;57723;51.698;5.344;2023-04-09T08:33:28;6.37;;;3.10;;
70312;SDS011;57723;51.698;5.344;2023-04-09T08:35:54;6.53;;;2.75;;
70312;SDS011;57723;51.698;5.344;2023-04-09T08:38:20;5.77;;;3.13;;
70312;SDS011;57723;51.698;5.344;2023-04-09T08:40:45;6.35;;;3.60;;
70312;SDS011;57723;51.698;5.344;2023-04-09T08:43:12;4.50;;;2.92;;
70312;SDS011;57723;51.698;5.344;2023-04-09T08:45:39;6.90;;;3.43;;
70312;SDS011;57723;51.698;5.344;2023-04-09T08:48:04;5.70;;;3.03;;
70312;SDS011;57723;51.698;5.344;2023-04-09T08:50:32;7.80;;;3.70;;
70312;SDS011;57723;51.698;5.344;2023-04-09T08:53:01;6.05;;;2.85;;
70312;SDS011;57723;51.698;5.344;2023-04-09T08:55:26;5.35;;;2.80;;
70312;SDS011;57723;51.698;5.344;2023-04-09T08:57:52;7.17;;;2.87;;
70312;SDS011;57723;51.698;5.344;2023-04-09T09:00:17;5.30;;;2.80;;
70312;SDS011;57723;51.698;5.344;2023-04-09T09:08:04;6.25;;;3.22;;
70312;SDS011;57723;51.698;5.344;2023-04-09T09:13:09;8.25;;;2.92;;
70312;SDS011;57723;51.698;5.344;2023-04-09T09:15:39;4.85;;;2.88;;
70312;SDS011;57723;51.698;5.344;2023-04-09T09:18:05;5.63;;;3.37;;
70312;SDS011;57723;51.698;5.344;2023-04-09T09:20:31;5.85;;;3.10;;
70312;SDS011;57723;51.698;5.344;2023-04-09T09:22:56;7.30;;;3.37;;
70312;SDS011;57723;51.698;5.344;2023-04-09T09:25:22;5.20;;;3.07;;
70312;SDS011;57723;51.698;5.344;2023-04-09T09:27:55;6.88;;;2.92;;
70312;SDS011;57723;51.698;5.344;2023-04-09T09:30:30;4.82;;;2.78;;
70312;SDS011;57723;51.698;5.344;2023-04-09T09:33:06;5.83;;;2.90;;
70312;SDS011;57723;51.698;5.344;2023-04-09T09:35:48;6.03;;;2.70;;
70312;SDS011;57723;51.698;5.344;2023-04-09T09:38:13;6.10;;;2.95;;
70312;SDS011;57723;51.698;5.344;2023-04-09T09:40:40;5.50;;;2.80;;
70312;SDS011;57723;51.698;5.344;2023-04-09T09:43:05;6.23;;;3.20;;
70312;SDS011;57723;51.698;5.344;2023-04-09T09:45:31;6.07;;;3.10;;
70312;SDS011;57723;51.698;5.344;2023-04-09T09:47:57;6.07;;;3.08;;
70312;SDS011;57723;51.698;5.344;2023-04-09T09:50:22;5.63;;;2.90;;
70312;SDS011;57723;51.698;5.344;2023-04-09T09:52:49;6.75;;;3.20;;
70312;SDS011;57723;51.698;5.344;2023-04-09T09:55:14;5.73;;;3.07;;
70312;SDS011;57723;51.698;5.344;2023-04-09T09:57:41;5.28;;;2.90;;
70312;SDS011;57723;51.698;5.344;2023-04-09T10:00:08;6.10;;;3.15;;
70312;SDS011;57723;51.698;5.344;2023-04-09T10:02:37;9.07;;;3.35;;
70312;SDS011;57723;51.698;5.344;2023-04-09T10:05:04;6.07;;;3.38;;
70312;SDS011;57723;51.698;5.344;2023-04-09T10:07:30;7.53;;;3.37;;
70312;SDS011;57723;51.698;5.344;2023-04-09T10:09:55;5.30;;;2.87;;
70312;SDS011;57723;51.698;5.344;2023-04-09T10:12:22;5.80;;;3.10;;
70312;SDS011;57723;51.698;5.344;2023-04-09T10:14:50;6.32;;;3.47;;
70312;SDS011;57723;51.698;5.344;2023-04-09T10:17:16;6.60;;;3.58;;
70312;SDS011;57723;51.698;5.344;2023-04-09T10:19:43;6.23;;;3.33;;
70312;SDS011;57723;51.698;5.344;2023-04-09T10:22:12;6.82;;;3.60;;
70312;SDS011;57723;51.698;5.344;2023-04-09T10:24:37;6.07;;;3.30;;
70312;SDS011;57723;51.698;5.344;2023-04-09T10:27:13;9.32;;;3.53;;
70312;SDS011;57723;51.698;5.344;2023-04-09T10:29:48;6.53;;;3.67;;
70312;SDS011;57723;51.698;5.344;2023-04-09T10:32:19;5.95;;;3.45;;
70312;SDS011;57723;51.698;5.344;2023-04-09T10:34:50;5.72;;;3.60;;
70312;SDS011;57723;51.698;5.344;2023-04-09T10:37:20;5.68;;;3.35;;
70312;SDS011;57723;51.698;5.344;2023-04-09T10:39:46;6.20;;;3.42;;
70312;SDS011;57723;51.698;5.344;2023-04-09T10:42:13;6.77;;;3.70;;
70312;SDS011;57723;51.698;5.344;2023-04-09T10:44:39;8.02;;;3.53;;
70312;SDS011;57723;51.698;5.344;2023-04-09T10:47:05;6.97;;;3.65;;
70312;SDS011;57723;51.698;5.344;2023-04-09T10:49:36;6.18;;;3.42;;
70312;SDS011;57723;51.698;5.344;2023-04-09T10:52:11;5.00;;;3.08;;
70312;SDS011;57723;51.698;5.344;2023-04-09T10:54:41;5.10;;;3.10;;
70312;SDS011;57723;51.698;5.344;2023-04-09T10:59:33;6.53;;;3.30;;
70312;SDS011;57723;51.698;5.344;2023-04-09T11:01:59;5.25;;;3.25;;
70312;SDS011;57723;51.698;5.344;2023-04-09T11:04:27;6.10;;;3.50;;
70312;SDS011;57723;51.698;5.344;2023-04-09T11:06:56;5.78;;;3.50;;
70312;SDS011;57723;51.698;5.344;2023-04-09T11:09:21;5.30;;;3.20;;
70312;SDS011;57723;51.698;5.344;2023-04-09T11:11:53;5.63;;;2.97;;
70312;SDS011;57723;51.698;5.344;2023-04-09T11:14:19;5.85;;;3.15;;
70312;SDS011;57723;51.698;5.344;2023-04-09T11:16:46;5.13;;;3.00;;
70312;SDS011;57723;51.698;5.344;2023-04-09T11:19:11;5.75;;;2.80;;
70312;SDS011;57723;51.698;5.344;2023-04-09T11:21:36;4.27;;;2.97;;
70312;SDS011;57723;51.698;5.344;2023-04-09T11:24:02;6.03;;;3.00;;
70312;SDS011;57723;51.698;5.344;2023-04-09T11:26:45;6.17;;;3.00;;
70312;SDS011;57723;51.698;5.344;2023-04-09T11:29:12;5.07;;;2.78;;
70312;SDS011;57723;51.698;5.344;2023-04-09T11:31:38;4.93;;;2.73;;
70312;SDS011;57723;51.698;5.344;2023-04-09T11:34:03;5.07;;;3.27;;
70312;SDS011;57723;51.698;5.344;2023-04-09T11:36:28;5.27;;;2.90;;
70312;SDS011;57723;51.698;5.344;2023-04-09T11:38:54;5.07;;;2.83;;
70312;SDS011;57723;51.698;5.344;2023-04-09T11:43:57;5.07;;;2.83;;
70312;SDS011;57723;51.698;5.344;2023-04-09T11:46:22;6.43;;;2.80;;
70312;SDS011;57723;51.698;5.344;2023-04-09T11:48:50;4.00;;;2.70;;
70312;SDS011;57723;51.698;5.344;2023-04-09T11:51:15;4.07;;;2.70;;
70312;SDS011;57723;51.698;5.344;2023-04-09T11:53:40;5.10;;;3.13;;
70312;SDS011;57723;51.698;5.344;2023-04-09T11:56:06;5.28;;;3.20;;
70312;SDS011;57723;51.698;5.344;2023-04-09T11:58:31;6.80;;;3.10;;
70312;SDS011;57723;51.698;5.344;2023-04-09T12:00:57;4.60;;;2.80;;
70312;SDS011;57723;51.698;5.344;2023-04-09T12:03:29;6.55;;;3.10;;
70312;SDS011;57723;51.698;5.344;2023-04-09T12:05:55;8.75;;;3.55;;
70312;SDS011;57723;51.698;5.344;2023-04-09T12:08:23;10.43;;;3.10;;
70312;SDS011;57723;51.698;5.344;2023-04-09T12:10:51;5.57;;;2.90;;
70312;SDS011;57723;51.698;5.344;2023-04-09T12:13:17;14.65;;;3.50;;
70312;SDS011;57723;51.698;5.344;2023-04-09T12:15:42;7.70;;;2.70;;
70312;SDS011;57723;51.698;5.344;2023-04-09T12:18:11;6.90;;;2.60;;
70312;SDS011;57723;51.698;5.344;2023-04-09T12:20:37;4.88;;;2.20;;
70312;SDS011;57723;51.698;5.344;2023-04-09T12:23:07;10.90;;;2.75;;
70312;SDS011;57723;51.698;5.344;2023-04-09T12:25:43;5.97;;;2.40;;
70312;SDS011;57723;51.698;5.344;2023-04-09T12:28:09;4.88;;;2.58;;
70312;SDS011;57723;51.698;5.344;2023-04-09T12:30:35;4.85;;;2.53;;
70312;SDS011;57723;51.698;5.344;2023-04-09T12:33:01;6.80;;;3.20;;
70312;SDS011;57723;51.698;5.344;2023-04-09T12:35:26;5.07;;;2.88;;
70312;SDS011;57723;51.698;5.344;2023-04-09T12:37:52;7.18;;;2.85;;
70312;SDS011;57723;51.698;5.344;2023-04-09T12:40:18;7.07;;;3.40;;
70312;SDS011;57723;51.698;5.344;2023-04-09T12:42:43;7.27;;;3.10;;
70312;SDS011;57723;51.698;5.344;2023-04-09T12:45:10;5.93;;;2.80;;
70312;SDS011;57723;51.698;5.344;2023-04-09T12:47:35;5.18;;;2.90;;
70312;SDS011;57723;51.698;5.344;2023-04-09T12:50:02;5.23;;;3.10;;
70312;SDS011;57723;51.698;5.344;2023-04-09T12:52:27;5.82;;;2.85;;
70312;SDS011;57723;51.698;5.344;2023-04-09T12:54:52;5.67;;;2.77;;
70312;SDS011;57723;51.698;5.344;2023-04-09T12:57:18;6.20;;;3.00;;
70312;SDS011;57723;51.698;5.344;2023-04-09T12:59:43;5.83;;;2.67;;
70312;SDS011;57723;51.698;5.344;2023-04-09T13:02:10;5.40;;;2.92;;
70312;SDS011;57723;51.698;5.344;2023-04-09T13:04:35;6.50;;;2.97;;
70312;SDS011;57723;51.698;5.344;2023-04-09T13:07:01;6.03;;;2.97;;
70312;SDS011;57723;51.698;5.344;2023-04-09T13:09:26;4.97;;;2.70;;
70312;SDS011;57723;51.698;5.344;2023-04-09T13:11:51;7.13;;;3.00;;
70312;SDS011;57723;51.698;5.344;2023-04-09T13:14:17;5.87;;;2.90;;
70312;SDS011;57723;51.698;5.344;2023-04-09T13:16:42;6.03;;;2.60;;
70312;SDS011;57723;51.698;5.344;2023-04-09T13:19:08;5.00;;;2.70;;
70312;SDS011;57723;51.698;5.344;2023-04-09T13:21:33;4.83;;;2.80;;
70312;SDS011;57723;51.698;5.344;2023-04-09T13:23:58;6.60;;;3.03;;
70312;SDS011;57723;51.698;5.344;2023-04-09T13:26:24;8.10;;;2.83;;
70312;SDS011;57723;51.698;5.344;2023-04-09T13:28:49;5.30;;;2.63;;
70312;SDS011;57723;51.698;5.344;2023-04-09T13:31:16;5.32;;;2.80;;
70312;SDS011;57723;51.698;5.344;2023-04-09T13:33:41;5.43;;;2.40;;
70312;SDS011;57723;51.698;5.344;2023-04-09T13:36:06;3.87;;;2.10;;
70312;SDS011;57723;51.698;5.344;2023-04-09T13:38:32;5.75;;;2.70;;
70312;SDS011;57723;51.698;5.344;2023-04-09T13:40:57;5.17;;;2.63;;
70312;SDS011;57723;51.698;5.344;2023-04-09T13:43:22;6.30;;;2.67;;
70312;SDS011;57723;51.698;5.344;2023-04-09T13:45:52;5.00;;;2.65;;
70312;SDS011;57723;51.698;5.344;2023-04-09T13:48:18;7.33;;;2.63;;
70312;SDS011;57723;51.698;5.344;2023-04-09T13:50:43;5.53;;;2.50;;
70312;SDS011;57723;51.698;5.344;2023-04-09T13:53:09;5.53;;;2.78;;
70312;SDS011;57723;51.698;5.344;2023-04-09T13:55:35;4.37;;;2.23;;
70312;SDS011;57723;51.698;5.344;2023-04-09T13:58:00;5.07;;;2.70;;
70312;SDS011;57723;51.698;5.344;2023-04-09T14:00:25;6.40;;;2.50;;
70312;SDS011;57723;51.698;5.344;2023-04-09T14:02:51;5.07;;;2.75;;
70312;SDS011;57723;51.698;5.344;2023-04-09T14:05:16;6.07;;;2.17;;
70312;SDS011;57723;51.698;5.344;2023-04-09T14:07:41;4.80;;;2.40;;
70312;SDS011;57723;51.698;5.344;2023-04-09T14:10:07;5.30;;;2.63;;
70312;SDS011;57723;51.698;5.344;2023-04-09T14:12:32;3.47;;;2.10;;
70312;SDS011;57723;51.698;5.344;2023-04-09T14:14:58;4.73;;;2.30;;
70312;SDS011;57723;51.698;5.344;2023-04-09T14:17:23;4.97;;;2.20;;
70312;SDS011;57723;51.698;5.344;2023-04-09T14:19:48;4.57;;;2.23;;
70312;SDS011;57723;51.698;5.344;2023-04-09T14:22:13;4.47;;;2.20;;
70312;SDS011;57723;51.698;5.344;2023-04-09T14:24:39;3.97;;;2.25;;
70312;SDS011;57723;51.698;5.344;2023-04-09T14:27:05;3.67;;;2.17;;
70312;SDS011;57723;51.698;5.344;2023-04-09T14:29:30;4.35;;;2.22;;
70312;SDS011;57723;51.698;5.344;2023-04-09T14:31:56;4.33;;;2.00;;
70312;SDS011;57723;51.698;5.344;2023-04-09T14:34:21;4.90;;;2.07;;
70312;SDS011;57723;51.698;5.344;2023-04-09T14:36:46;4.40;;;2.00;;
70312;SDS011;57723;51.698;5.344;2023-04-09T14:39:11;3.97;;;2.20;;
70312;SDS011;57723;51.698;5.344;2023-04-09T14:41:37;4.27;;;2.20;;
70312;SDS011;57723;51.698;5.344;2023-04-09T14:44:02;3.53;;;2.10;;
70312;SDS011;57723;51.698;5.344;2023-04-09T14:46:27;3.50;;;2.00;;
70312;SDS011;57723;51.698;5.344;2023-04-09T14:48:52;5.33;;;2.33;;
70312;SDS011;57723;51.698;5.344;2023-04-09T14:51:18;3.60;;;2.00;;
70312;SDS011;57723;51.698;5.344;2023-04-09T14:53:43;2.63;;;1.70;;
70312;SDS011;57723;51.698;5.344;2023-04-09T14:56:08;3.57;;;2.00;;
70312;SDS011;57723;51.698;5.344;2023-04-09T14:58:33;3.27;;;1.97;;
70312;SDS011;57723;51.698;5.344;2023-04-09T15:00:59;4.03;;;2.00;;
70312;SDS011;57723;51.698;5.344;2023-04-09T15:03:24;3.07;;;1.77;;
70312;SDS011;57723;51.698;5.344;2023-04-09T15:05:49;3.60;;;2.10;;